sim
Sign-in with your pilot id or email,
or register
Callsign
Passwort

Schedule Details

Flight Number: DLH2688
Departure: Munich Airport (EDDM) at 14:00
Arrival: Sylt Airport (EDXW) at 15:35
Route: Lufthansa Passenger Schedule. Enter filed route here before submitting Pirep.

Weather Information
Getting current METAR information for EDDM 010550Z VRB01KT 0500 R08L/0375N R08R/0250N FG BKN001 04/04 Q1009 BECMG 1200 BCFG BKN002
Getting current METAR information for EDXW 010550Z AUTO 13012KT 9999 // NCD 12/10 Q1007

Schedule Frequency

Route Map